createdAt,value
2022-10-18T00:00:53.435Z,75.39
2022-10-18T00:03:56.154Z,75.93
2022-10-18T00:06:59.183Z,75.73
2022-10-18T00:10:01.754Z,75.87
2022-10-18T00:13:04.552Z,75.73
2022-10-18T00:16:16.905Z,76.36
2022-10-18T00:19:19.582Z,76.24
2022-10-18T00:22:22.277Z,76.00
2022-10-18T00:25:24.941Z,76.64
2022-10-18T00:28:27.538Z,76.77
2022-10-18T00:31:33.294Z,77.46
2022-10-18T00:34:36.028Z,77.42
2022-10-18T00:37:38.578Z,78.08
2022-10-18T00:40:41.315Z,78.01
2022-10-18T00:43:55.493Z,77.63
2022-10-18T00:47:02.999Z,77.58
2022-10-18T00:50:08.986Z,78.61
2022-10-18T00:53:17.338Z,78.72
2022-10-18T00:56:20.083Z,79.58
2022-10-18T00:59:23.485Z,79.48
2022-10-18T01:02:28.297Z,79.83
2022-10-18T01:05:31.303Z,78.87
2022-10-18T01:08:46.621Z,79.48
2022-10-18T01:12:05.371Z,81.03
2022-10-18T01:15:15.125Z,80.59
2022-10-18T01:18:33.382Z,80.66
2022-10-18T01:21:46.065Z,81.03
2022-10-18T01:28:21.308Z,80.62
2022-10-18T01:31:31.419Z,80.83
2022-10-18T01:34:38.770Z,79.55
2022-10-18T01:37:44.458Z,79.64
2022-10-18T01:40:50.185Z,80.02
2022-10-18T01:43:57.197Z,80.57
2022-10-18T01:47:01.454Z,80.34
2022-10-18T01:50:06.846Z,80.00
2022-10-18T01:53:26.563Z,80.11
2022-10-18T01:56:36.638Z,80.06
2022-10-18T01:59:51.682Z,80.38
2022-10-18T02:03:02.922Z,80.57
2022-10-18T02:06:10.639Z,80.16
2022-10-18T02:09:19.972Z,80.67
2022-10-18T02:12:24.243Z,80.71
2022-10-18T02:15:34.036Z,80.95
2022-10-18T02:18:42.656Z,80.64
2022-10-18T02:21:48.719Z,80.83
2022-10-18T02:24:55.577Z,79.92
2022-10-18T02:27:58.550Z,80.65
2022-10-18T02:31:07.980Z,80.94
2022-10-18T02:34:17.923Z,80.85
2022-10-18T02:37:21.598Z,80.92
2022-10-18T02:40:25.535Z,81.15
2022-10-18T02:43:28.251Z,81.26
2022-10-18T02:46:30.967Z,81.21
2022-10-18T02:49:34.897Z,81.23
2022-10-18T02:52:37.602Z,81.31
2022-10-18T02:55:40.167Z,81.19
2022-10-18T02:58:42.801Z,80.90
2022-10-18T03:01:45.535Z,81.11
2022-10-18T03:04:49.454Z,81.19
2022-10-18T03:07:52.164Z,81.37
2022-10-18T03:10:54.703Z,81.63
2022-10-18T03:13:57.393Z,81.48
2022-10-18T03:17:00.128Z,81.44
2022-10-18T03:20:04.265Z,81.04
2022-10-18T03:23:07.337Z,81.49
2022-10-18T03:26:09.928Z,81.23
2022-10-18T03:29:12.743Z,81.43
2022-10-18T03:32:15.299Z,81.82
2022-10-18T03:35:19.418Z,81.09
2022-10-18T03:38:21.978Z,81.11
2022-10-18T03:41:24.521Z,81.77
2022-10-18T03:44:27.102Z,81.38
2022-10-18T03:47:29.812Z,81.94
2022-10-18T03:50:33.776Z,81.92
2022-10-18T03:53:36.462Z,82.26
2022-10-18T03:56:39.028Z,82.54
2022-10-18T03:59:41.714Z,82.40
2022-10-18T04:02:44.420Z,82.38
2022-10-18T04:05:49.294Z,82.28
2022-10-18T04:08:51.954Z,82.44
2022-10-18T04:11:54.502Z,82.70
2022-10-18T04:14:57.185Z,82.52
2022-10-18T04:17:59.849Z,83.11
2022-10-18T04:21:03.840Z,82.98
2022-10-18T04:24:07.184Z,82.84
2022-10-18T04:27:09.734Z,83.55
2022-10-18T04:30:12.677Z,83.43
2022-10-18T04:33:15.387Z,83.54
2022-10-18T04:36:19.328Z,83.25
2022-10-18T04:39:22.089Z,83.15
2022-10-18T04:42:25.384Z,83.35
2022-10-18T04:45:28.166Z,83.73
2022-10-18T04:48:30.825Z,83.54
2022-10-18T04:51:34.738Z,83.46
2022-10-18T04:54:37.462Z,83.51
2022-10-18T04:57:40.046Z,83.54
2022-10-18T05:00:43.584Z,83.55
2022-10-18T05:03:46.320Z,83.63
2022-10-18T05:06:50.342Z,83.56
2022-10-18T05:09:53.007Z,83.81
2022-10-18T05:12:55.557Z,83.61
2022-10-18T05:15:59.519Z,83.69
2022-10-18T05:19:02.124Z,84.28
2022-10-18T05:22:06.006Z,84.46
2022-10-18T05:25:09.967Z,85.20
2022-10-18T05:28:34.596Z,84.91
2022-10-18T05:31:35.562Z,85.80
2022-10-18T05:34:38.140Z,84.35
2022-10-18T05:37:42.100Z,86.21
2022-10-18T05:40:44.675Z,86.36
2022-10-18T05:43:47.228Z,86.34
2022-10-18T05:46:49.905Z,86.78
2022-10-18T05:49:52.717Z,85.99
2022-10-18T05:53:06.949Z,85.75
2022-10-18T05:56:15.538Z,86.15
2022-10-18T05:59:18.106Z,86.11
2022-10-18T06:02:20.765Z,85.67
2022-10-18T06:05:23.461Z,85.62
2022-10-18T06:08:27.398Z,85.55
2022-10-18T06:11:31.356Z,85.32
2022-10-18T06:14:34.158Z,85.59
2022-10-18T06:17:36.987Z,85.38
2022-10-18T06:20:39.927Z,85.46
2022-10-18T06:23:43.923Z,85.01
2022-10-18T06:26:46.616Z,85.46
2022-10-18T06:29:49.166Z,85.72
2022-10-18T06:32:51.890Z,85.44
2022-10-18T06:35:59.209Z,85.61
2022-10-18T06:39:03.179Z,85.22
2022-10-18T06:42:05.942Z,85.53
2022-10-18T06:45:09.828Z,85.75
2022-10-18T06:48:12.556Z,85.50
2022-10-18T06:51:15.864Z,85.99
2022-10-18T06:54:19.894Z,85.65
2022-10-18T06:57:22.875Z,85.89
2022-10-18T07:00:25.432Z,85.60
2022-10-18T07:03:28.114Z,85.82
2022-10-18T07:06:30.838Z,85.67
2022-10-18T07:09:34.900Z,85.21
2022-10-18T07:12:37.727Z,85.48
2022-10-18T07:15:40.439Z,85.17
2022-10-18T07:18:44.435Z,85.51
2022-10-18T07:21:47.132Z,85.94
2022-10-18T07:24:51.050Z,86.08
2022-10-18T07:27:53.817Z,86.38
2022-10-18T07:30:56.533Z,86.29
2022-10-18T07:33:59.265Z,86.21
2022-10-18T07:37:02.747Z,85.90
2022-10-18T07:40:07.929Z,86.52
2022-10-18T07:43:12.316Z,86.25
2022-10-18T07:46:16.345Z,86.07
2022-10-18T07:49:19.116Z,86.29
2022-10-18T07:52:21.690Z,87.04
2022-10-18T07:55:25.708Z,87.34
2022-10-18T07:58:28.633Z,87.08
2022-10-18T08:01:31.747Z,87.07
2022-10-18T08:04:34.359Z,87.16
2022-10-18T08:07:36.988Z,85.84
2022-10-18T08:10:41.548Z,85.60
2022-10-18T08:13:45.085Z,86.31
2022-10-18T08:16:47.625Z,86.73
2022-10-18T08:20:04.734Z,86.59
2022-10-18T08:23:13.554Z,87.07
2022-10-18T08:26:20.039Z,87.36
2022-10-18T08:29:25.835Z,87.11
2022-10-18T08:32:30.973Z,87.07
2022-10-18T08:35:33.913Z,87.00
2022-10-18T08:38:38.203Z,86.79
2022-10-18T08:42:10.525Z,86.53
2022-10-18T08:45:40.883Z,87.08
2022-10-18T08:48:41.613Z,87.37
2022-10-18T08:51:47.454Z,86.90
2022-10-18T08:55:00.664Z,87.35
2022-10-18T08:58:14.162Z,87.10
2022-10-18T09:01:29.714Z,87.26
2022-10-18T09:04:43.187Z,87.91
2022-10-18T09:08:09.530Z,87.72
2022-10-18T09:11:27.815Z,87.16
2022-10-18T09:15:13.784Z,86.65
2022-10-18T09:18:45.312Z,86.23
2022-10-18T09:21:53.265Z,87.12
2022-10-18T09:25:07.111Z,87.01
2022-10-18T09:28:18.134Z,87.20
2022-10-18T09:31:29.380Z,86.86
2022-10-18T09:34:39.435Z,87.39
2022-10-18T09:37:44.327Z,87.74
2022-10-18T09:40:53.553Z,88.03
2022-10-18T09:44:00.056Z,87.55
2022-10-18T09:47:12.292Z,87.18
2022-10-18T09:50:26.416Z,86.91
2022-10-18T09:53:37.587Z,87.64
2022-10-18T09:56:46.197Z,87.45
2022-10-18T09:59:50.299Z,87.66
2022-10-18T10:02:55.853Z,87.23
2022-10-18T10:06:15.764Z,87.38
2022-10-18T10:09:22.514Z,87.30
2022-10-18T10:12:31.338Z,87.25
2022-10-18T10:15:40.516Z,87.12
2022-10-18T10:18:54.437Z,87.23
2022-10-18T10:22:03.055Z,86.72
2022-10-18T10:25:07.578Z,86.92
2022-10-18T10:28:16.703Z,86.93
2022-10-18T10:31:27.717Z,86.73
2022-10-18T10:34:31.740Z,86.56
2022-10-18T10:37:36.968Z,86.79
2022-10-18T10:40:46.840Z,86.89
2022-10-18T10:43:50.652Z,85.88
2022-10-18T10:46:54.959Z,86.17
2022-10-18T10:49:59.140Z,86.38
2022-10-18T10:53:02.275Z,86.30
2022-10-18T10:56:06.923Z,86.54
2022-10-18T10:59:14.515Z,86.72
2022-10-18T11:02:23.616Z,87.12
2022-10-18T11:05:29.734Z,87.14
2022-10-18T11:08:39.320Z,86.69
2022-10-18T11:11:49.941Z,86.61
2022-10-18T11:15:00.490Z,86.32
2022-10-18T11:18:14.394Z,86.74
2022-10-18T11:21:23.175Z,86.03
2022-10-18T11:24:26.896Z,86.52
2022-10-18T11:27:35.998Z,86.88
2022-10-18T11:30:51.670Z,87.22
2022-10-18T11:34:18.306Z,86.01
2022-10-18T11:37:41.695Z,85.72
2022-10-18T11:41:00.784Z,86.61
2022-10-18T11:44:05.087Z,86.14
2022-10-18T11:47:16.388Z,86.26
2022-10-18T11:50:29.593Z,85.77
2022-10-18T11:53:38.116Z,86.36
2022-10-18T11:56:48.504Z,86.47
2022-10-18T12:00:02.830Z,85.98
2022-10-18T12:03:33.170Z,85.35
2022-10-18T12:06:38.686Z,85.88
2022-10-18T12:09:45.459Z,86.02
2022-10-18T12:12:52.700Z,86.25
2022-10-18T12:15:56.627Z,86.63
2022-10-18T12:19:01.152Z,86.97
2022-10-18T12:22:14.767Z,87.34
2022-10-18T12:25:20.169Z,86.94
2022-10-18T12:28:38.430Z,87.45
2022-10-18T12:31:46.231Z,86.61
2022-10-18T12:34:52.179Z,86.50
2022-10-18T12:38:07.181Z,85.20
2022-10-18T12:41:20.651Z,87.48
2022-10-18T12:44:28.767Z,87.08
2022-10-18T12:47:32.298Z,86.29
2022-10-18T12:50:37.871Z,86.05
2022-10-18T12:53:41.979Z,86.04
2022-10-18T12:56:47.722Z,86.10
2022-10-18T12:59:50.883Z,85.72
2022-10-18T13:03:41.029Z,87.20
2022-10-18T13:07:19.701Z,86.18
2022-10-18T13:10:40.460Z,86.32
2022-10-18T13:13:55.687Z,86.83
2022-10-18T13:17:05.633Z,85.11
2022-10-18T13:20:27.346Z,85.56
2022-10-18T13:23:43.628Z,84.14
2022-10-18T13:27:18.019Z,85.15
2022-10-18T13:30:32.528Z,83.41
2022-10-18T13:33:38.616Z,85.27
2022-10-18T13:36:43.552Z,83.78
2022-10-18T13:39:46.290Z,83.23
2022-10-18T13:42:48.886Z,84.51
2022-10-18T13:45:55.886Z,83.61
2022-10-18T13:49:01.075Z,82.04
2022-10-18T13:52:16.674Z,81.78
2022-10-18T13:55:37.892Z,82.50
2022-10-18T13:59:05.717Z,82.15
2022-10-18T14:02:50.489Z,81.94
2022-10-18T14:05:58.022Z,82.62
2022-10-18T14:09:13.910Z,81.83
2022-10-18T14:12:33.540Z,80.78
2022-10-18T14:15:40.359Z,81.72
2022-10-18T14:18:44.158Z,82.17
2022-10-18T14:21:54.977Z,82.03
2022-10-18T14:25:00.159Z,82.06
2022-10-18T14:28:13.447Z,82.69
2022-10-18T14:31:19.233Z,82.30
2022-10-18T14:34:22.694Z,82.21
2022-10-18T14:37:29.997Z,82.38
2022-10-18T14:40:37.990Z,82.04
2022-10-18T14:43:40.693Z,81.49
2022-10-18T14:46:44.889Z,81.52
2022-10-18T14:49:48.442Z,80.72
2022-10-18T14:52:51.730Z,81.21
2022-10-18T14:55:57.373Z,82.05
2022-10-18T14:59:03.829Z,82.02
2022-10-18T15:02:14.889Z,81.74
2022-10-18T15:05:22.314Z,82.32
2022-10-18T15:08:27.962Z,81.72
2022-10-18T15:11:33.803Z,81.90
2022-10-18T15:14:37.922Z,81.38
2022-10-18T15:17:41.841Z,81.44
2022-10-18T15:20:44.523Z,81.80
2022-10-18T15:23:47.125Z,81.65
2022-10-18T15:26:52.890Z,80.37
2022-10-18T15:29:55.939Z,81.50
2022-10-18T15:33:00.594Z,82.17
2022-10-18T15:36:11.077Z,82.10
2022-10-18T15:39:17.720Z,81.75
2022-10-18T15:42:38.643Z,81.03
2022-10-18T15:49:20.035Z,81.63
2022-10-18T15:52:40.726Z,81.97
2022-10-18T15:55:52.194Z,81.08
2022-10-18T15:58:57.858Z,82.21
2022-10-18T16:02:00.794Z,82.49
2022-10-18T16:05:04.060Z,81.77
2022-10-18T16:08:06.903Z,81.76
2022-10-18T16:11:14.802Z,81.58
2022-10-18T16:14:19.077Z,81.35
2022-10-18T16:17:21.649Z,81.38
2022-10-18T16:20:27.264Z,81.58
2022-10-18T16:23:29.844Z,81.15
2022-10-18T16:26:32.575Z,81.23
2022-10-18T16:29:36.638Z,81.03
2022-10-18T16:32:40.372Z,80.91
2022-10-18T16:35:42.931Z,81.63
2022-10-18T16:38:46.428Z,81.11
2022-10-18T16:41:49.473Z,81.41
2022-10-18T16:44:54.889Z,81.43
2022-10-18T16:47:57.437Z,81.50
2022-10-18T16:51:00.550Z,81.33
2022-10-18T16:54:07.755Z,81.20
2022-10-18T16:57:12.703Z,81.04
2022-10-18T17:00:20.718Z,81.15
2022-10-18T17:03:24.650Z,81.13
2022-10-18T17:06:29.355Z,81.33
2022-10-18T17:09:34.735Z,80.65
2022-10-18T17:12:37.321Z,81.40
2022-10-18T17:15:42.432Z,81.49
2022-10-18T17:18:45.201Z,81.09
2022-10-18T17:21:47.986Z,81.36
2022-10-18T17:24:50.861Z,81.06
2022-10-18T17:27:53.447Z,81.08
2022-10-18T17:30:57.613Z,81.16
2022-10-18T17:34:01.814Z,81.16
2022-10-18T17:37:05.519Z,80.88
2022-10-18T17:40:09.834Z,81.10
2022-10-18T17:43:14.731Z,80.77
2022-10-18T17:46:19.765Z,80.47
2022-10-18T17:49:22.893Z,80.11
2022-10-18T17:52:25.838Z,80.39
2022-10-18T17:55:30.023Z,79.86
2022-10-18T17:58:33.312Z,79.39
2022-10-18T18:01:37.683Z,80.15
2022-10-18T18:04:40.408Z,80.11
2022-10-18T18:07:44.257Z,80.55
2022-10-18T18:10:46.877Z,80.13
2022-10-18T18:13:49.717Z,80.48
2022-10-18T18:16:54.240Z,80.62
2022-10-18T18:19:56.823Z,80.69
2022-10-18T18:22:59.465Z,80.49
2022-10-18T18:26:02.354Z,80.77
2022-10-18T18:29:08.524Z,80.25
2022-10-18T18:32:13.215Z,79.81
2022-10-18T18:35:16.215Z,80.01
2022-10-18T18:38:19.152Z,79.98
2022-10-18T18:41:23.376Z,79.95
2022-10-18T18:44:26.291Z,80.03
2022-10-18T18:47:31.050Z,80.36
2022-10-18T18:50:37.043Z,80.00
2022-10-18T18:53:41.199Z,80.49
2022-10-18T18:56:44.191Z,80.07
2022-10-18T18:59:47.050Z,79.49
2022-10-18T19:02:51.173Z,79.93
2022-10-18T19:06:03.624Z,79.77
2022-10-18T19:09:12.316Z,80.01
2022-10-18T19:12:19.101Z,79.95
2022-10-18T19:15:24.177Z,80.04
2022-10-18T19:18:28.228Z,80.04
2022-10-18T19:21:32.933Z,79.65
2022-10-18T19:24:35.546Z,79.80
2022-10-18T19:27:38.356Z,79.56
2022-10-18T19:30:40.932Z,79.55
2022-10-18T19:33:48.403Z,79.50
2022-10-18T19:36:58.809Z,80.49
2022-10-18T19:40:01.672Z,79.92
2022-10-18T19:43:04.388Z,79.71
2022-10-18T19:46:07.473Z,79.95
2022-10-18T19:49:12.123Z,79.18
2022-10-18T19:52:14.901Z,78.67
2022-10-18T19:55:18.953Z,79.09
2022-10-18T19:58:21.497Z,79.38
2022-10-18T20:01:24.356Z,79.12
2022-10-18T20:04:34.209Z,79.12
2022-10-18T20:07:37.444Z,78.73
2022-10-18T20:10:40.476Z,79.01
2022-10-18T20:13:43.821Z,79.02
2022-10-18T20:16:47.001Z,79.21
2022-10-18T20:19:51.041Z,79.51
2022-10-18T20:22:53.624Z,78.95
2022-10-18T20:25:58.178Z,78.79
2022-10-18T20:29:00.839Z,79.20
2022-10-18T20:32:03.661Z,78.33
2022-10-18T20:35:11.941Z,78.69
2022-10-18T20:38:14.689Z,78.77
2022-10-18T20:41:25.182Z,78.63
2022-10-18T20:44:30.659Z,79.05
2022-10-18T20:47:33.944Z,79.39
2022-10-18T20:50:41.750Z,78.90
2022-10-18T20:53:45.051Z,79.30
2022-10-18T20:56:47.715Z,79.55
2022-10-18T20:59:50.470Z,78.87
2022-10-18T21:02:55.802Z,79.00
2022-10-18T21:06:02.362Z,79.09
2022-10-18T21:09:08.760Z,78.72
2022-10-18T21:15:20.113Z,78.98
2022-10-18T21:18:26.139Z,79.67
2022-10-18T21:21:30.853Z,79.40
2022-10-18T21:24:33.979Z,79.13
2022-10-18T21:27:36.840Z,79.82
2022-10-18T21:30:45.461Z,78.98
2022-10-18T21:33:48.601Z,80.44
2022-10-18T21:36:52.686Z,79.69
2022-10-18T21:39:55.214Z,79.77
2022-10-18T21:42:58.023Z,80.09
2022-10-18T21:46:01.378Z,79.96
2022-10-18T21:49:04.234Z,80.46
2022-10-18T21:52:08.288Z,80.20
2022-10-18T21:55:11.069Z,80.83
2022-10-18T21:58:13.831Z,80.37
2022-10-18T22:01:18.463Z,80.13
2022-10-18T22:04:22.882Z,80.12
2022-10-18T22:07:26.949Z,80.06
2022-10-18T22:10:29.527Z,80.40
2022-10-18T22:13:32.439Z,80.65
2022-10-18T22:16:35.224Z,79.43
2022-10-18T22:19:37.785Z,80.07
2022-10-18T22:22:41.883Z,80.77
2022-10-18T22:25:44.540Z,80.88
2022-10-18T22:28:47.825Z,81.20
2022-10-18T22:31:51.813Z,81.28
2022-10-18T22:34:54.392Z,80.90
2022-10-18T22:37:58.483Z,81.38
2022-10-18T22:41:04.951Z,80.60
2022-10-18T22:44:08.187Z,81.40
2022-10-18T22:47:10.860Z,81.35
2022-10-18T22:50:13.413Z,79.78
2022-10-18T22:53:17.648Z,80.88
2022-10-18T22:56:22.045Z,81.84
2022-10-18T22:59:24.922Z,80.55
2022-10-18T23:02:27.845Z,81.33
2022-10-18T23:05:30.509Z,81.45
2022-10-18T23:08:34.635Z,81.16
2022-10-18T23:11:38.379Z,81.42
2022-10-18T23:14:41.190Z,81.79
2022-10-18T23:17:43.891Z,80.85
2022-10-18T23:20:46.704Z,80.85
2022-10-18T23:23:51.722Z,81.13
2022-10-18T23:26:54.429Z,81.85
2022-10-18T23:29:57.305Z,81.22
2022-10-18T23:33:00.131Z,81.95
2022-10-18T23:36:02.839Z,81.00
2022-10-18T23:39:07.282Z,81.50
2022-10-18T23:42:09.869Z,81.03
2022-10-18T23:45:12.580Z,80.97
2022-10-18T23:48:15.383Z,80.86
2022-10-18T23:51:18.842Z,80.25
2022-10-18T23:54:23.166Z,81.16
2022-10-18T23:57:25.736Z,81.26
